sensor_id;sensor_type;location;lat;lon;timestamp;P1;durP1;ratioP1;P2;durP2;ratioP2
62584;SDS011;48643;51.670;5.808;2022-07-23T00:00:31;7.03;;;3.55;;
62584;SDS011;48643;51.670;5.808;2022-07-23T00:03:05;11.82;;;4.50;;
62584;SDS011;48643;51.670;5.808;2022-07-23T00:05:34;8.85;;;4.38;;
62584;SDS011;48643;51.670;5.808;2022-07-23T00:08:03;10.20;;;4.15;;
62584;SDS011;48643;51.670;5.808;2022-07-23T00:10:34;9.82;;;4.20;;
62584;SDS011;48643;51.670;5.808;2022-07-23T00:13:02;9.98;;;3.67;;
62584;SDS011;48643;51.670;5.808;2022-07-23T00:15:29;9.57;;;3.67;;
62584;SDS011;48643;51.670;5.808;2022-07-23T00:17:57;6.00;;;3.50;;
62584;SDS011;48643;51.670;5.808;2022-07-23T00:20:24;9.07;;;3.15;;
62584;SDS011;48643;51.670;5.808;2022-07-23T00:22:53;7.57;;;3.40;;
62584;SDS011;48643;51.670;5.808;2022-07-23T00:25:21;8.82;;;3.70;;
62584;SDS011;48643;51.670;5.808;2022-07-23T00:27:56;7.72;;;3.35;;
62584;SDS011;48643;51.670;5.808;2022-07-23T00:30:23;6.72;;;3.35;;
62584;SDS011;48643;51.670;5.808;2022-07-23T00:32:52;6.97;;;3.33;;
62584;SDS011;48643;51.670;5.808;2022-07-23T00:35:25;7.60;;;3.00;;
62584;SDS011;48643;51.670;5.808;2022-07-23T00:37:53;3.45;;;2.88;;
62584;SDS011;48643;51.670;5.808;2022-07-23T00:40:22;6.75;;;3.05;;
62584;SDS011;48643;51.670;5.808;2022-07-23T00:42:49;6.38;;;3.33;;
62584;SDS011;48643;51.670;5.808;2022-07-23T00:45:17;6.78;;;3.30;;
62584;SDS011;48643;51.670;5.808;2022-07-23T00:47:44;7.55;;;3.17;;
62584;SDS011;48643;51.670;5.808;2022-07-23T00:50:14;4.57;;;2.95;;
62584;SDS011;48643;51.670;5.808;2022-07-23T00:52:41;9.30;;;3.20;;
62584;SDS011;48643;51.670;5.808;2022-07-23T00:55:09;6.53;;;3.17;;
62584;SDS011;48643;51.670;5.808;2022-07-23T00:57:38;5.22;;;3.10;;
62584;SDS011;48643;51.670;5.808;2022-07-23T01:00:06;6.88;;;3.20;;
62584;SDS011;48643;51.670;5.808;2022-07-23T01:02:35;8.02;;;3.10;;
62584;SDS011;48643;51.670;5.808;2022-07-23T01:05:02;6.88;;;3.22;;
62584;SDS011;48643;51.670;5.808;2022-07-23T01:07:30;7.43;;;3.42;;
62584;SDS011;48643;51.670;5.808;2022-07-23T01:10:00;6.00;;;3.35;;
62584;SDS011;48643;51.670;5.808;2022-07-23T01:12:29;11.73;;;3.17;;
62584;SDS011;48643;51.670;5.808;2022-07-23T01:14:57;7.38;;;3.10;;
62584;SDS011;48643;51.670;5.808;2022-07-23T01:17:27;6.70;;;3.22;;
62584;SDS011;48643;51.670;5.808;2022-07-23T01:19:54;4.80;;;3.22;;
62584;SDS011;48643;51.670;5.808;2022-07-23T01:22:22;6.45;;;3.05;;
62584;SDS011;48643;51.670;5.808;2022-07-23T01:24:50;6.43;;;3.10;;
62584;SDS011;48643;51.670;5.808;2022-07-23T01:27:22;5.75;;;3.33;;
62584;SDS011;48643;51.670;5.808;2022-07-23T01:29:54;6.90;;;3.30;;
62584;SDS011;48643;51.670;5.808;2022-07-23T01:32:22;8.27;;;3.70;;
62584;SDS011;48643;51.670;5.808;2022-07-23T01:34:50;10.63;;;3.42;;
62584;SDS011;48643;51.670;5.808;2022-07-23T01:37:18;5.53;;;3.33;;
62584;SDS011;48643;51.670;5.808;2022-07-23T01:39:47;6.38;;;3.60;;
62584;SDS011;48643;51.670;5.808;2022-07-23T01:42:17;6.32;;;3.58;;
62584;SDS011;48643;51.670;5.808;2022-07-23T01:44:46;9.35;;;3.42;;
62584;SDS011;48643;51.670;5.808;2022-07-23T01:47:18;9.32;;;3.65;;
62584;SDS011;48643;51.670;5.808;2022-07-23T01:49:48;5.00;;;3.50;;
62584;SDS011;48643;51.670;5.808;2022-07-23T01:52:36;5.97;;;3.45;;
62584;SDS011;48643;51.670;5.808;2022-07-23T01:55:06;13.07;;;3.50;;
62584;SDS011;48643;51.670;5.808;2022-07-23T01:57:35;6.80;;;3.63;;
62584;SDS011;48643;51.670;5.808;2022-07-23T02:00:03;8.90;;;3.40;;
62584;SDS011;48643;51.670;5.808;2022-07-23T02:02:38;6.78;;;3.55;;
62584;SDS011;48643;51.670;5.808;2022-07-23T02:05:06;7.30;;;3.40;;
62584;SDS011;48643;51.670;5.808;2022-07-23T02:07:34;5.35;;;3.47;;
62584;SDS011;48643;51.670;5.808;2022-07-23T02:10:01;6.72;;;3.70;;
62584;SDS011;48643;51.670;5.808;2022-07-23T02:12:29;5.82;;;3.60;;
62584;SDS011;48643;51.670;5.808;2022-07-23T02:14:59;5.97;;;3.60;;
62584;SDS011;48643;51.670;5.808;2022-07-23T02:17:26;7.85;;;4.35;;
62584;SDS011;48643;51.670;5.808;2022-07-23T02:19:54;9.07;;;3.85;;
62584;SDS011;48643;51.670;5.808;2022-07-23T02:22:21;6.07;;;3.75;;
62584;SDS011;48643;51.670;5.808;2022-07-23T02:24:49;7.18;;;3.83;;
62584;SDS011;48643;51.670;5.808;2022-07-23T02:27:16;6.07;;;3.72;;
62584;SDS011;48643;51.670;5.808;2022-07-23T02:29:44;9.43;;;3.83;;
62584;SDS011;48643;51.670;5.808;2022-07-23T02:32:13;9.63;;;4.03;;
62584;SDS011;48643;51.670;5.808;2022-07-23T02:34:42;9.43;;;3.95;;
62584;SDS011;48643;51.670;5.808;2022-07-23T02:37:10;10.45;;;4.10;;
62584;SDS011;48643;51.670;5.808;2022-07-23T02:39:38;8.55;;;4.13;;
62584;SDS011;48643;51.670;5.808;2022-07-23T02:42:05;12.85;;;4.22;;
62584;SDS011;48643;51.670;5.808;2022-07-23T02:44:34;8.32;;;3.75;;
62584;SDS011;48643;51.670;5.808;2022-07-23T02:47:01;6.72;;;4.10;;
62584;SDS011;48643;51.670;5.808;2022-07-23T02:49:29;8.23;;;4.10;;
62584;SDS011;48643;51.670;5.808;2022-07-23T02:51:56;5.25;;;3.88;;
62584;SDS011;48643;51.670;5.808;2022-07-23T02:54:25;11.73;;;3.83;;
62584;SDS011;48643;51.670;5.808;2022-07-23T02:56:53;6.43;;;3.90;;
62584;SDS011;48643;51.670;5.808;2022-07-23T02:59:20;5.85;;;3.78;;
62584;SDS011;48643;51.670;5.808;2022-07-23T03:01:48;6.53;;;3.85;;
62584;SDS011;48643;51.670;5.808;2022-07-23T03:04:17;5.65;;;3.22;;
62584;SDS011;48643;51.670;5.808;2022-07-23T03:06:44;11.10;;;3.35;;
62584;SDS011;48643;51.670;5.808;2022-07-23T03:09:12;6.05;;;3.72;;
62584;SDS011;48643;51.670;5.808;2022-07-23T03:11:40;7.32;;;3.70;;
62584;SDS011;48643;51.670;5.808;2022-07-23T03:14:07;7.63;;;3.88;;
62584;SDS011;48643;51.670;5.808;2022-07-23T03:16:35;9.35;;;3.85;;
62584;SDS011;48643;51.670;5.808;2022-07-23T03:19:03;10.95;;;4.05;;
62584;SDS011;48643;51.670;5.808;2022-07-23T03:21:32;7.47;;;4.15;;
62584;SDS011;48643;51.670;5.808;2022-07-23T03:24:01;7.72;;;3.53;;
62584;SDS011;48643;51.670;5.808;2022-07-23T03:26:29;10.15;;;3.80;;
62584;SDS011;48643;51.670;5.808;2022-07-23T03:28:56;6.15;;;3.85;;
62584;SDS011;48643;51.670;5.808;2022-07-23T03:31:24;6.97;;;3.90;;
62584;SDS011;48643;51.670;5.808;2022-07-23T03:33:51;9.50;;;4.22;;
62584;SDS011;48643;51.670;5.808;2022-07-23T03:36:19;5.40;;;4.00;;
62584;SDS011;48643;51.670;5.808;2022-07-23T03:38:49;5.63;;;3.97;;
62584;SDS011;48643;51.670;5.808;2022-07-23T03:41:17;6.72;;;3.78;;
62584;SDS011;48643;51.670;5.808;2022-07-23T03:43:45;7.88;;;4.00;;
62584;SDS011;48643;51.670;5.808;2022-07-23T03:46:13;9.48;;;4.18;;
62584;SDS011;48643;51.670;5.808;2022-07-23T03:48:40;8.60;;;4.10;;
62584;SDS011;48643;51.670;5.808;2022-07-23T03:51:08;6.53;;;4.35;;
62584;SDS011;48643;51.670;5.808;2022-07-23T03:53:36;5.95;;;3.60;;
62584;SDS011;48643;51.670;5.808;2022-07-23T03:56:04;8.02;;;3.95;;
62584;SDS011;48643;51.670;5.808;2022-07-23T03:58:32;5.68;;;4.07;;
62584;SDS011;48643;51.670;5.808;2022-07-23T04:01:00;7.70;;;4.20;;
62584;SDS011;48643;51.670;5.808;2022-07-23T04:03:27;10.70;;;4.07;;
62584;SDS011;48643;51.670;5.808;2022-07-23T04:05:56;5.17;;;4.20;;
62584;SDS011;48643;51.670;5.808;2022-07-23T04:08:27;9.40;;;4.35;;
62584;SDS011;48643;51.670;5.808;2022-07-23T04:10:56;7.78;;;5.07;;
62584;SDS011;48643;51.670;5.808;2022-07-23T04:13:24;6.70;;;4.30;;
62584;SDS011;48643;51.670;5.808;2022-07-23T04:15:52;6.05;;;4.60;;
62584;SDS011;48643;51.670;5.808;2022-07-23T04:18:19;8.15;;;4.32;;
62584;SDS011;48643;51.670;5.808;2022-07-23T04:20:59;10.55;;;4.78;;
62584;SDS011;48643;51.670;5.808;2022-07-23T04:23:27;10.63;;;4.85;;
62584;SDS011;48643;51.670;5.808;2022-07-23T04:25:54;9.27;;;5.00;;
62584;SDS011;48643;51.670;5.808;2022-07-23T04:28:23;8.50;;;5.07;;
62584;SDS011;48643;51.670;5.808;2022-07-23T04:30:51;9.23;;;5.10;;
62584;SDS011;48643;51.670;5.808;2022-07-23T04:33:20;10.77;;;5.10;;
62584;SDS011;48643;51.670;5.808;2022-07-23T04:35:50;7.75;;;4.82;;
62584;SDS011;48643;51.670;5.808;2022-07-23T04:38:19;7.97;;;5.20;;
62584;SDS011;48643;51.670;5.808;2022-07-23T04:40:49;9.05;;;5.13;;
62584;SDS011;48643;51.670;5.808;2022-07-23T04:43:16;10.95;;;5.30;;
62584;SDS011;48643;51.670;5.808;2022-07-23T04:45:47;13.00;;;5.45;;
62584;SDS011;48643;51.670;5.808;2022-07-23T04:48:16;10.60;;;5.28;;
62584;SDS011;48643;51.670;5.808;2022-07-23T04:50:45;11.70;;;5.72;;
62584;SDS011;48643;51.670;5.808;2022-07-23T04:53:21;11.75;;;5.50;;
62584;SDS011;48643;51.670;5.808;2022-07-23T04:55:52;11.15;;;5.22;;
62584;SDS011;48643;51.670;5.808;2022-07-23T04:58:19;11.32;;;5.35;;
62584;SDS011;48643;51.670;5.808;2022-07-23T05:00:47;8.80;;;5.25;;
62584;SDS011;48643;51.670;5.808;2022-07-23T05:03:15;8.83;;;5.30;;
62584;SDS011;48643;51.670;5.808;2022-07-23T05:05:45;11.82;;;5.80;;
62584;SDS011;48643;51.670;5.808;2022-07-23T05:08:15;11.23;;;5.90;;
62584;SDS011;48643;51.670;5.808;2022-07-23T05:10:48;10.07;;;5.80;;
62584;SDS011;48643;51.670;5.808;2022-07-23T05:13:17;10.33;;;6.00;;
62584;SDS011;48643;51.670;5.808;2022-07-23T05:15:45;10.45;;;5.90;;
62584;SDS011;48643;51.670;5.808;2022-07-23T05:18:13;11.40;;;6.25;;
62584;SDS011;48643;51.670;5.808;2022-07-23T05:20:40;9.98;;;6.10;;
62584;SDS011;48643;51.670;5.808;2022-07-23T05:23:10;10.18;;;6.57;;
62584;SDS011;48643;51.670;5.808;2022-07-23T05:25:41;10.52;;;6.18;;
62584;SDS011;48643;51.670;5.808;2022-07-23T05:28:09;13.97;;;5.90;;
62584;SDS011;48643;51.670;5.808;2022-07-23T05:30:37;12.05;;;6.25;;
62584;SDS011;48643;51.670;5.808;2022-07-23T05:33:07;18.35;;;6.68;;
62584;SDS011;48643;51.670;5.808;2022-07-23T05:35:36;9.30;;;5.93;;
62584;SDS011;48643;51.670;5.808;2022-07-23T05:38:23;11.50;;;6.15;;
62584;SDS011;48643;51.670;5.808;2022-07-23T05:40:51;12.82;;;6.28;;
62584;SDS011;48643;51.670;5.808;2022-07-23T05:43:19;10.35;;;6.32;;
62584;SDS011;48643;51.670;5.808;2022-07-23T05:45:47;7.97;;;6.25;;
62584;SDS011;48643;51.670;5.808;2022-07-23T05:48:15;9.93;;;6.22;;
62584;SDS011;48643;51.670;5.808;2022-07-23T05:50:55;18.58;;;6.65;;
62584;SDS011;48643;51.670;5.808;2022-07-23T05:53:29;10.48;;;6.88;;
62584;SDS011;48643;51.670;5.808;2022-07-23T05:56:14;13.93;;;6.93;;
62584;SDS011;48643;51.670;5.808;2022-07-23T05:58:43;10.03;;;6.63;;
62584;SDS011;48643;51.670;5.808;2022-07-23T06:01:11;10.43;;;6.32;;
62584;SDS011;48643;51.670;5.808;2022-07-23T06:03:46;19.42;;;6.68;;
62584;SDS011;48643;51.670;5.808;2022-07-23T06:06:13;11.15;;;6.70;;
62584;SDS011;48643;51.670;5.808;2022-07-23T06:08:42;11.90;;;6.43;;
62584;SDS011;48643;51.670;5.808;2022-07-23T06:11:10;13.77;;;6.03;;
62584;SDS011;48643;51.670;5.808;2022-07-23T06:13:38;11.48;;;6.32;;
62584;SDS011;48643;51.670;5.808;2022-07-23T06:16:06;12.77;;;6.13;;
62584;SDS011;48643;51.670;5.808;2022-07-23T06:18:34;9.90;;;5.90;;
62584;SDS011;48643;51.670;5.808;2022-07-23T06:21:03;10.13;;;5.80;;
62584;SDS011;48643;51.670;5.808;2022-07-23T06:23:50;9.80;;;5.93;;
62584;SDS011;48643;51.670;5.808;2022-07-23T06:26:18;9.45;;;5.78;;
62584;SDS011;48643;51.670;5.808;2022-07-23T06:28:45;9.60;;;6.20;;
62584;SDS011;48643;51.670;5.808;2022-07-23T06:31:12;11.20;;;6.07;;
62584;SDS011;48643;51.670;5.808;2022-07-23T06:33:40;12.90;;;5.80;;
62584;SDS011;48643;51.670;5.808;2022-07-23T06:36:07;10.25;;;5.63;;
62584;SDS011;48643;51.670;5.808;2022-07-23T06:38:35;8.48;;;5.60;;
62584;SDS011;48643;51.670;5.808;2022-07-23T06:41:02;10.00;;;5.38;;
62584;SDS011;48643;51.670;5.808;2022-07-23T06:43:30;7.30;;;5.13;;
62584;SDS011;48643;51.670;5.808;2022-07-23T06:45:58;12.13;;;5.53;;
62584;SDS011;48643;51.670;5.808;2022-07-23T06:48:26;15.95;;;5.63;;
62584;SDS011;48643;51.670;5.808;2022-07-23T06:50:54;7.55;;;4.75;;
62584;SDS011;48643;51.670;5.808;2022-07-23T06:53:23;8.88;;;4.80;;
62584;SDS011;48643;51.670;5.808;2022-07-23T06:55:51;6.97;;;4.68;;
62584;SDS011;48643;51.670;5.808;2022-07-23T06:58:18;10.73;;;4.97;;
62584;SDS011;48643;51.670;5.808;2022-07-23T07:00:46;8.98;;;4.68;;
62584;SDS011;48643;51.670;5.808;2022-07-23T07:03:14;8.18;;;4.60;;
62584;SDS011;48643;51.670;5.808;2022-07-23T07:05:41;7.50;;;4.53;;
62584;SDS011;48643;51.670;5.808;2022-07-23T07:08:09;8.90;;;4.25;;
62584;SDS011;48643;51.670;5.808;2022-07-23T07:10:36;9.20;;;4.22;;
62584;SDS011;48643;51.670;5.808;2022-07-23T07:13:04;7.03;;;3.70;;
62584;SDS011;48643;51.670;5.808;2022-07-23T07:15:31;10.93;;;4.45;;
62584;SDS011;48643;51.670;5.808;2022-07-23T07:17:59;12.35;;;4.28;;
62584;SDS011;48643;51.670;5.808;2022-07-23T07:20:26;9.35;;;4.25;;
62584;SDS011;48643;51.670;5.808;2022-07-23T07:22:54;6.70;;;3.88;;
62584;SDS011;48643;51.670;5.808;2022-07-23T07:25:21;7.72;;;3.88;;
62584;SDS011;48643;51.670;5.808;2022-07-23T07:27:49;10.43;;;3.78;;
62584;SDS011;48643;51.670;5.808;2022-07-23T07:30:16;6.38;;;3.70;;
62584;SDS011;48643;51.670;5.808;2022-07-23T07:32:44;10.18;;;3.70;;
62584;SDS011;48643;51.670;5.808;2022-07-23T07:35:27;6.32;;;3.30;;
62584;SDS011;48643;51.670;5.808;2022-07-23T07:37:54;8.50;;;3.42;;
62584;SDS011;48643;51.670;5.808;2022-07-23T07:40:22;6.47;;;3.38;;
62584;SDS011;48643;51.670;5.808;2022-07-23T07:42:50;8.77;;;3.63;;
62584;SDS011;48643;51.670;5.808;2022-07-23T07:45:21;5.68;;;3.28;;
62584;SDS011;48643;51.670;5.808;2022-07-23T07:47:49;10.80;;;3.30;;
62584;SDS011;48643;51.670;5.808;2022-07-23T07:50:17;17.17;;;3.20;;
62584;SDS011;48643;51.670;5.808;2022-07-23T07:52:44;16.63;;;3.53;;
62584;SDS011;48643;51.670;5.808;2022-07-23T07:55:12;11.60;;;3.00;;
62584;SDS011;48643;51.670;5.808;2022-07-23T07:57:39;8.10;;;2.83;;
62584;SDS011;48643;51.670;5.808;2022-07-23T08:00:14;7.18;;;2.60;;
62584;SDS011;48643;51.670;5.808;2022-07-23T08:02:45;11.38;;;2.83;;
62584;SDS011;48643;51.670;5.808;2022-07-23T08:05:18;7.60;;;3.20;;
62584;SDS011;48643;51.670;5.808;2022-07-23T08:07:52;6.20;;;2.80;;
62584;SDS011;48643;51.670;5.808;2022-07-23T08:10:20;5.90;;;2.92;;
62584;SDS011;48643;51.670;5.808;2022-07-23T08:12:48;7.70;;;3.40;;
62584;SDS011;48643;51.670;5.808;2022-07-23T08:15:17;7.50;;;2.90;;
62584;SDS011;48643;51.670;5.808;2022-07-23T08:17:45;5.40;;;2.90;;
62584;SDS011;48643;51.670;5.808;2022-07-23T08:20:14;6.47;;;2.70;;
62584;SDS011;48643;51.670;5.808;2022-07-23T08:22:47;5.20;;;2.83;;
62584;SDS011;48643;51.670;5.808;2022-07-23T08:25:16;8.43;;;3.45;;
62584;SDS011;48643;51.670;5.808;2022-07-23T08:27:43;9.05;;;3.80;;
62584;SDS011;48643;51.670;5.808;2022-07-23T08:30:11;6.68;;;3.40;;
62584;SDS011;48643;51.670;5.808;2022-07-23T08:32:53;12.23;;;3.33;;
62584;SDS011;48643;51.670;5.808;2022-07-23T08:35:25;6.05;;;3.40;;
62584;SDS011;48643;51.670;5.808;2022-07-23T08:37:52;4.72;;;3.38;;
62584;SDS011;48643;51.670;5.808;2022-07-23T08:40:20;10.20;;;2.90;;
62584;SDS011;48643;51.670;5.808;2022-07-23T08:42:48;9.07;;;3.35;;
62584;SDS011;48643;51.670;5.808;2022-07-23T08:45:17;7.37;;;3.00;;
62584;SDS011;48643;51.670;5.808;2022-07-23T08:50:17;9.13;;;3.58;;
62584;SDS011;48643;51.670;5.808;2022-07-23T08:52:45;4.07;;;2.95;;
62584;SDS011;48643;51.670;5.808;2022-07-23T08:55:12;7.47;;;3.30;;
62584;SDS011;48643;51.670;5.808;2022-07-23T08:57:40;4.75;;;3.00;;
62584;SDS011;48643;51.670;5.808;2022-07-23T09:00:07;7.70;;;3.20;;
62584;SDS011;48643;51.670;5.808;2022-07-23T09:02:39;5.20;;;2.70;;
62584;SDS011;48643;51.670;5.808;2022-07-23T09:05:07;6.90;;;3.70;;
62584;SDS011;48643;51.670;5.808;2022-07-23T09:07:35;7.03;;;3.75;;
62584;SDS011;48643;51.670;5.808;2022-07-23T09:10:09;6.72;;;3.70;;
62584;SDS011;48643;51.670;5.808;2022-07-23T09:12:37;6.10;;;3.47;;
62584;SDS011;48643;51.670;5.808;2022-07-23T09:15:06;6.20;;;3.10;;
62584;SDS011;48643;51.670;5.808;2022-07-23T09:17:38;8.00;;;2.90;;
62584;SDS011;48643;51.670;5.808;2022-07-23T09:20:09;8.18;;;2.97;;
62584;SDS011;48643;51.670;5.808;2022-07-23T09:22:44;12.25;;;3.00;;
62584;SDS011;48643;51.670;5.808;2022-07-23T09:25:13;5.45;;;2.63;;
62584;SDS011;48643;51.670;5.808;2022-07-23T09:30:09;11.05;;;2.83;;
62584;SDS011;48643;51.670;5.808;2022-07-23T09:32:36;7.63;;;2.60;;
62584;SDS011;48643;51.670;5.808;2022-07-23T09:35:03;4.93;;;2.45;;
62584;SDS011;48643;51.670;5.808;2022-07-23T09:37:31;5.80;;;2.67;;
62584;SDS011;48643;51.670;5.808;2022-07-23T09:40:08;4.60;;;2.28;;
62584;SDS011;48643;51.670;5.808;2022-07-23T09:42:39;7.85;;;3.15;;
62584;SDS011;48643;51.670;5.808;2022-07-23T09:45:06;8.63;;;3.33;;
62584;SDS011;48643;51.670;5.808;2022-07-23T09:47:38;5.28;;;3.10;;
62584;SDS011;48643;51.670;5.808;2022-07-23T09:50:09;5.53;;;2.97;;
62584;SDS011;48643;51.670;5.808;2022-07-23T09:52:42;6.75;;;3.40;;
62584;SDS011;48643;51.670;5.808;2022-07-23T09:55:10;7.47;;;3.35;;
62584;SDS011;48643;51.670;5.808;2022-07-23T09:57:38;8.45;;;2.85;;
62584;SDS011;48643;51.670;5.808;2022-07-23T10:00:08;6.55;;;3.45;;
62584;SDS011;48643;51.670;5.808;2022-07-23T10:02:37;7.30;;;3.10;;
62584;SDS011;48643;51.670;5.808;2022-07-23T10:05:23;4.68;;;2.47;;
62584;SDS011;48643;51.670;5.808;2022-07-23T10:08:11;5.43;;;2.38;;
62584;SDS011;48643;51.670;5.808;2022-07-23T10:11:16;6.60;;;2.38;;
62584;SDS011;48643;51.670;5.808;2022-07-23T10:13:54;12.10;;;3.00;;
62584;SDS011;48643;51.670;5.808;2022-07-23T10:16:35;7.13;;;2.70;;
62584;SDS011;48643;51.670;5.808;2022-07-23T10:19:05;4.53;;;2.60;;
62584;SDS011;48643;51.670;5.808;2022-07-23T10:32:14;18.00;;;2.40;;
62584;SDS011;48643;51.670;5.808;2022-07-23T10:34:47;4.88;;;2.60;;
62584;SDS011;48643;51.670;5.808;2022-07-23T10:37:21;6.43;;;2.85;;
62584;SDS011;48643;51.670;5.808;2022-07-23T10:40:08;6.25;;;2.80;;
62584;SDS011;48643;51.670;5.808;2022-07-23T10:42:36;11.90;;;5.55;;
62584;SDS011;48643;51.670;5.808;2022-07-23T10:47:50;15.13;;;9.98;;
62584;SDS011;48643;51.670;5.808;2022-07-23T10:58:03;6.17;;;2.73;;
62584;SDS011;48643;51.670;5.808;2022-07-23T11:00:31;7.63;;;2.90;;
62584;SDS011;48643;51.670;5.808;2022-07-23T11:03:00;3.28;;;2.70;;
62584;SDS011;48643;51.670;5.808;2022-07-23T11:05:44;6.50;;;2.40;;
62584;SDS011;48643;51.670;5.808;2022-07-23T11:08:13;6.38;;;2.80;;
62584;SDS011;48643;51.670;5.808;2022-07-23T11:34:24;7.90;;;2.50;;
62584;SDS011;48643;51.670;5.808;2022-07-23T11:36:55;5.85;;;2.75;;
62584;SDS011;48643;51.670;5.808;2022-07-23T11:39:22;8.35;;;3.10;;
62584;SDS011;48643;51.670;5.808;2022-07-23T11:41:52;5.40;;;2.70;;
62584;SDS011;48643;51.670;5.808;2022-07-23T11:44:30;7.10;;;2.92;;
62584;SDS011;48643;51.670;5.808;2022-07-23T11:47:05;6.63;;;2.95;;
62584;SDS011;48643;51.670;5.808;2022-07-23T11:49:33;6.72;;;2.97;;
62584;SDS011;48643;51.670;5.808;2022-07-23T11:54:46;10.90;;;3.15;;
62584;SDS011;48643;51.670;5.808;2022-07-23T11:57:14;9.15;;;2.80;;
62584;SDS011;48643;51.670;5.808;2022-07-23T11:59:41;5.50;;;2.78;;
62584;SDS011;48643;51.670;5.808;2022-07-23T12:02:09;5.35;;;2.83;;
62584;SDS011;48643;51.670;5.808;2022-07-23T12:07:23;27.83;;;6.28;;
62584;SDS011;48643;51.670;5.808;2022-07-23T12:09:51;12.60;;;4.13;;
62584;SDS011;48643;51.670;5.808;2022-07-23T12:12:18;5.47;;;2.85;;
62584;SDS011;48643;51.670;5.808;2022-07-23T12:17:19;5.07;;;2.92;;
62584;SDS011;48643;51.670;5.808;2022-07-23T12:19:47;10.23;;;3.28;;
62584;SDS011;48643;51.670;5.808;2022-07-23T12:22:15;5.95;;;2.85;;
62584;SDS011;48643;51.670;5.808;2022-07-23T12:24:52;5.47;;;2.80;;
62584;SDS011;48643;51.670;5.808;2022-07-23T12:27:20;5.78;;;3.00;;
62584;SDS011;48643;51.670;5.808;2022-07-23T12:29:48;5.30;;;2.65;;
62584;SDS011;48643;51.670;5.808;2022-07-23T12:32:20;6.37;;;3.13;;
62584;SDS011;48643;51.670;5.808;2022-07-23T12:34:49;13.68;;;3.53;;
62584;SDS011;48643;51.670;5.808;2022-07-23T12:37:25;14.02;;;4.25;;
62584;SDS011;48643;51.670;5.808;2022-07-23T12:39:56;5.03;;;3.50;;
62584;SDS011;48643;51.670;5.808;2022-07-23T12:42:24;6.63;;;3.00;;
62584;SDS011;48643;51.670;5.808;2022-07-23T12:45:05;16.15;;;3.20;;
62584;SDS011;48643;51.670;5.808;2022-07-23T12:50:41;5.15;;;2.90;;
62584;SDS011;48643;51.670;5.808;2022-07-23T12:53:14;6.30;;;2.70;;
62584;SDS011;48643;51.670;5.808;2022-07-23T12:55:50;4.85;;;2.70;;
62584;SDS011;48643;51.670;5.808;2022-07-23T12:58:47;6.85;;;3.30;;
62584;SDS011;48643;51.670;5.808;2022-07-23T13:01:28;6.03;;;2.83;;
62584;SDS011;48643;51.670;5.808;2022-07-23T13:04:00;8.65;;;3.30;;
62584;SDS011;48643;51.670;5.808;2022-07-23T13:06:37;9.57;;;3.13;;
62584;SDS011;48643;51.670;5.808;2022-07-23T13:09:06;6.50;;;2.92;;
62584;SDS011;48643;51.670;5.808;2022-07-23T13:11:34;13.52;;;3.25;;
62584;SDS011;48643;51.670;5.808;2022-07-23T13:14:02;9.07;;;2.97;;
62584;SDS011;48643;51.670;5.808;2022-07-23T13:16:34;6.10;;;3.22;;
62584;SDS011;48643;51.670;5.808;2022-07-23T13:19:04;8.02;;;3.00;;
62584;SDS011;48643;51.670;5.808;2022-07-23T13:21:38;5.22;;;3.10;;
62584;SDS011;48643;51.670;5.808;2022-07-23T13:24:05;4.65;;;2.80;;
62584;SDS011;48643;51.670;5.808;2022-07-23T13:26:35;5.70;;;2.80;;
62584;SDS011;48643;51.670;5.808;2022-07-23T13:29:03;6.05;;;2.60;;
62584;SDS011;48643;51.670;5.808;2022-07-23T13:31:35;6.90;;;2.88;;
62584;SDS011;48643;51.670;5.808;2022-07-23T13:34:04;4.82;;;2.63;;
62584;SDS011;48643;51.670;5.808;2022-07-23T13:36:33;6.50;;;2.80;;
62584;SDS011;48643;51.670;5.808;2022-07-23T13:39:01;5.05;;;3.00;;
62584;SDS011;48643;51.670;5.808;2022-07-23T13:41:30;5.28;;;2.92;;
62584;SDS011;48643;51.670;5.808;2022-07-23T13:43:57;7.43;;;2.87;;
62584;SDS011;48643;51.670;5.808;2022-07-23T13:46:25;6.32;;;3.05;;
62584;SDS011;48643;51.670;5.808;2022-07-23T13:48:53;8.57;;;2.97;;
62584;SDS011;48643;51.670;5.808;2022-07-23T13:51:20;5.65;;;3.08;;
62584;SDS011;48643;51.670;5.808;2022-07-23T13:53:51;6.90;;;2.88;;
62584;SDS011;48643;51.670;5.808;2022-07-23T13:56:18;5.30;;;3.22;;
62584;SDS011;48643;51.670;5.808;2022-07-23T13:58:47;9.40;;;2.97;;
62584;SDS011;48643;51.670;5.808;2022-07-23T14:01:14;7.90;;;2.90;;
62584;SDS011;48643;51.670;5.808;2022-07-23T14:03:43;6.47;;;2.83;;
62584;SDS011;48643;51.670;5.808;2022-07-23T14:06:11;6.90;;;2.90;;
62584;SDS011;48643;51.670;5.808;2022-07-23T14:08:41;6.25;;;2.70;;
62584;SDS011;48643;51.670;5.808;2022-07-23T14:11:10;6.00;;;2.90;;
62584;SDS011;48643;51.670;5.808;2022-07-23T14:13:37;6.53;;;3.28;;
62584;SDS011;48643;51.670;5.808;2022-07-23T14:16:06;5.00;;;2.70;;
62584;SDS011;48643;51.670;5.808;2022-07-23T14:18:33;8.15;;;3.05;;
62584;SDS011;48643;51.670;5.808;2022-07-23T14:21:01;6.43;;;3.00;;
62584;SDS011;48643;51.670;5.808;2022-07-23T14:23:29;10.00;;;3.22;;
62584;SDS011;48643;51.670;5.808;2022-07-23T14:25:57;4.80;;;2.90;;
62584;SDS011;48643;51.670;5.808;2022-07-23T14:28:27;5.40;;;2.63;;
62584;SDS011;48643;51.670;5.808;2022-07-23T14:30:54;8.68;;;2.60;;
62584;SDS011;48643;51.670;5.808;2022-07-23T14:33:21;7.28;;;2.80;;
62584;SDS011;48643;51.670;5.808;2022-07-23T14:35:51;7.03;;;3.10;;
62584;SDS011;48643;51.670;5.808;2022-07-23T14:38:19;9.57;;;3.00;;
62584;SDS011;48643;51.670;5.808;2022-07-23T14:40:47;6.63;;;3.05;;
62584;SDS011;48643;51.670;5.808;2022-07-23T14:43:15;6.43;;;2.90;;
62584;SDS011;48643;51.670;5.808;2022-07-23T14:45:42;5.60;;;3.05;;
62584;SDS011;48643;51.670;5.808;2022-07-23T14:48:14;7.35;;;2.90;;
62584;SDS011;48643;51.670;5.808;2022-07-23T14:50:41;6.50;;;3.03;;
62584;SDS011;48643;51.670;5.808;2022-07-23T14:53:08;5.28;;;3.20;;
62584;SDS011;48643;51.670;5.808;2022-07-23T14:55:36;6.30;;;3.00;;
62584;SDS011;48643;51.670;5.808;2022-07-23T15:00:32;9.00;;;2.90;;
62584;SDS011;48643;51.670;5.808;2022-07-23T15:02:59;6.25;;;2.97;;
62584;SDS011;48643;51.670;5.808;2022-07-23T15:05:26;10.55;;;3.13;;
62584;SDS011;48643;51.670;5.808;2022-07-23T15:07:55;8.70;;;3.40;;
62584;SDS011;48643;51.670;5.808;2022-07-23T15:10:24;5.35;;;2.90;;
62584;SDS011;48643;51.670;5.808;2022-07-23T15:12:51;5.75;;;3.28;;
62584;SDS011;48643;51.670;5.808;2022-07-23T15:15:19;10.77;;;3.50;;
62584;SDS011;48643;51.670;5.808;2022-07-23T15:17:47;6.85;;;3.45;;
62584;SDS011;48643;51.670;5.808;2022-07-23T15:20:15;5.05;;;2.90;;
62584;SDS011;48643;51.670;5.808;2022-07-23T15:23:03;7.60;;;3.10;;
62584;SDS011;48643;51.670;5.808;2022-07-23T15:25:33;6.10;;;3.15;;
62584;SDS011;48643;51.670;5.808;2022-07-23T15:28:31;4.78;;;3.40;;
62584;SDS011;48643;51.670;5.808;2022-07-23T15:31:00;6.47;;;3.58;;
62584;SDS011;48643;51.670;5.808;2022-07-23T15:33:28;8.27;;;3.25;;
62584;SDS011;48643;51.670;5.808;2022-07-23T15:35:56;7.50;;;3.30;;
62584;SDS011;48643;51.670;5.808;2022-07-23T15:38:25;6.65;;;3.15;;
62584;SDS011;48643;51.670;5.808;2022-07-23T15:40:57;8.63;;;3.58;;
62584;SDS011;48643;51.670;5.808;2022-07-23T15:43:32;15.27;;;3.70;;
62584;SDS011;48643;51.670;5.808;2022-07-23T15:46:00;20.03;;;3.40;;
62584;SDS011;48643;51.670;5.808;2022-07-23T15:48:33;7.30;;;2.97;;
62584;SDS011;48643;51.670;5.808;2022-07-23T15:51:03;11.50;;;3.60;;
62584;SDS011;48643;51.670;5.808;2022-07-23T15:53:32;30.60;;;3.90;;
62584;SDS011;48643;51.670;5.808;2022-07-23T15:56:03;14.85;;;3.50;;
62584;SDS011;48643;51.670;5.808;2022-07-23T15:58:35;7.05;;;3.10;;
62584;SDS011;48643;51.670;5.808;2022-07-23T16:01:04;27.05;;;4.00;;
62584;SDS011;48643;51.670;5.808;2022-07-23T16:06:00;8.65;;;3.60;;